createdAt,value
2023-03-31T00:00:02.332Z,77.73
2023-03-31T00:03:10.296Z,76.65
2023-03-31T00:06:17.996Z,76.80
2023-03-31T00:09:22.196Z,76.65
2023-03-31T00:12:24.931Z,77.45
2023-03-31T00:15:29.880Z,77.10
2023-03-31T00:18:33.154Z,76.97
2023-03-31T00:21:36.940Z,77.75
2023-03-31T00:24:39.808Z,76.38
2023-03-31T00:27:44.121Z,75.81
2023-03-31T00:30:48.474Z,75.75
2023-03-31T00:33:51.520Z,76.21
2023-03-31T00:36:56.328Z,76.40
2023-03-31T00:39:59.318Z,76.80
2023-03-31T00:43:03.094Z,76.42
2023-03-31T00:46:15.693Z,76.43
2023-03-31T00:49:24.441Z,75.91
2023-03-31T00:52:35.583Z,75.55
2023-03-31T00:55:43.262Z,75.57
2023-03-31T00:58:47.249Z,75.55
2023-03-31T01:01:52.852Z,75.89
2023-03-31T01:05:02.206Z,75.18
2023-03-31T01:08:06.768Z,75.11
2023-03-31T01:11:13.152Z,76.00
2023-03-31T01:14:16.061Z,75.35
2023-03-31T01:17:22.408Z,74.99
2023-03-31T01:20:38.151Z,75.56
2023-03-31T01:24:02.521Z,75.77
2023-03-31T01:27:29.886Z,74.90
2023-03-31T01:31:08.468Z,73.63
2023-03-31T01:34:56.770Z,75.51
2023-03-31T01:38:42.277Z,74.18
2023-03-31T01:41:57.551Z,74.90
2023-03-31T01:45:09.083Z,74.64
2023-03-31T01:48:18.062Z,74.51
2023-03-31T01:51:30.462Z,75.20
2023-03-31T01:54:40.373Z,75.26
2023-03-31T01:57:51.929Z,75.85
2023-03-31T02:01:02.090Z,76.36
2023-03-31T02:04:11.036Z,75.94
2023-03-31T02:07:17.993Z,75.55
2023-03-31T02:10:23.012Z,76.62
2023-03-31T02:13:30.247Z,75.28
2023-03-31T02:16:37.870Z,75.43
2023-03-31T02:19:45.378Z,75.70
2023-03-31T02:22:52.145Z,76.13
2023-03-31T02:26:01.021Z,76.31
2023-03-31T02:29:05.202Z,76.12
2023-03-31T02:32:15.162Z,76.19
2023-03-31T02:35:21.686Z,76.33
2023-03-31T02:38:24.458Z,75.84
2023-03-31T02:41:27.492Z,76.08
2023-03-31T02:44:31.778Z,75.99
2023-03-31T02:47:35.686Z,75.81
2023-03-31T02:50:52.484Z,75.69
2023-03-31T02:54:16.909Z,75.96
2023-03-31T02:57:49.058Z,76.48
2023-03-31T03:01:08.616Z,76.44
2023-03-31T03:04:27.782Z,76.65
2023-03-31T03:07:38.645Z,76.46
2023-03-31T03:10:56.835Z,76.24
2023-03-31T03:14:06.656Z,76.00
2023-03-31T03:17:16.112Z,76.12
2023-03-31T03:20:21.204Z,76.03
2023-03-31T03:23:23.958Z,75.64
2023-03-31T03:26:28.291Z,75.57
2023-03-31T03:29:31.147Z,74.96
2023-03-31T03:32:35.729Z,74.80
2023-03-31T03:35:38.656Z,75.63
2023-03-31T03:38:41.442Z,74.68
2023-03-31T03:41:44.229Z,74.64
2023-03-31T03:44:47.319Z,75.51
2023-03-31T03:47:51.369Z,75.39
2023-03-31T03:50:55.235Z,75.49
2023-03-31T03:53:57.937Z,74.80
2023-03-31T03:57:00.910Z,72.90
2023-03-31T04:00:08.017Z,73.47
2023-03-31T04:03:12.147Z,75.26
2023-03-31T04:06:15.004Z,75.02
2023-03-31T04:09:17.791Z,74.56
2023-03-31T04:12:20.516Z,74.99
2023-03-31T04:15:23.270Z,75.25
2023-03-31T04:18:27.333Z,74.29
2023-03-31T04:21:30.839Z,75.10
2023-03-31T04:24:33.916Z,75.37
2023-03-31T04:27:36.774Z,75.07
2023-03-31T04:30:39.754Z,75.00
2023-03-31T04:33:46.295Z,74.86
2023-03-31T04:36:49.408Z,74.95
2023-03-31T04:39:54.599Z,75.39
2023-03-31T04:42:57.522Z,75.21
2023-03-31T04:46:00.279Z,75.39
2023-03-31T04:49:05.917Z,75.36
2023-03-31T04:52:08.742Z,74.99
2023-03-31T04:55:11.856Z,75.58
2023-03-31T04:58:14.691Z,74.18
2023-03-31T05:01:18.290Z,75.76
2023-03-31T05:04:22.746Z,75.39
2023-03-31T05:07:25.560Z,74.88
2023-03-31T05:10:28.380Z,73.93
2023-03-31T05:13:31.638Z,73.87
2023-03-31T05:16:34.688Z,74.73
2023-03-31T05:19:39.018Z,73.54
2023-03-31T05:22:43.789Z,74.40
2023-03-31T05:25:46.874Z,73.78
2023-03-31T05:28:49.588Z,74.19
2023-03-31T05:31:53.925Z,73.04
2023-03-31T05:34:58.214Z,74.72
2023-03-31T05:38:00.944Z,74.25
2023-03-31T05:41:03.785Z,73.60
2023-03-31T05:44:06.549Z,72.95
2023-03-31T05:47:09.431Z,73.56
2023-03-31T05:50:14.766Z,73.52
2023-03-31T05:53:17.800Z,71.69
2023-03-31T05:56:21.697Z,72.18
2023-03-31T05:59:24.431Z,72.40
2023-03-31T06:02:27.600Z,71.11
2023-03-31T06:05:32.467Z,71.06
2023-03-31T06:08:35.301Z,69.96
2023-03-31T06:11:38.134Z,70.88
2023-03-31T06:14:40.826Z,71.16
2023-03-31T06:17:43.766Z,70.37
2023-03-31T06:20:47.842Z,70.44
2023-03-31T06:23:55.004Z,68.95
2023-03-31T06:26:57.841Z,68.73
2023-03-31T06:30:00.528Z,68.38
2023-03-31T06:33:03.297Z,68.44
2023-03-31T06:36:08.595Z,68.53
2023-03-31T06:39:11.582Z,67.78
2023-03-31T06:42:15.238Z,68.95
2023-03-31T06:45:18.170Z,67.24
2023-03-31T06:48:21.537Z,67.06
2023-03-31T06:51:25.705Z,66.02
2023-03-31T06:54:28.551Z,66.75
2023-03-31T06:57:33.420Z,64.67
2023-03-31T07:00:36.444Z,62.22
2023-03-31T07:03:39.387Z,61.55
2023-03-31T07:06:43.586Z,60.74
2023-03-31T07:09:46.685Z,59.89
2023-03-31T07:12:49.541Z,59.56
2023-03-31T07:15:52.429Z,58.12
2023-03-31T07:18:59.481Z,58.17
2023-03-31T07:22:03.576Z,59.23
2023-03-31T07:25:07.097Z,58.32
2023-03-31T07:28:09.839Z,58.82
2023-03-31T07:31:13.585Z,59.55
2023-03-31T07:34:16.480Z,58.98
2023-03-31T07:37:20.624Z,60.55
2023-03-31T07:40:26.137Z,58.49
2023-03-31T07:43:29.028Z,57.71
2023-03-31T07:46:31.880Z,56.75
2023-03-31T07:49:35.661Z,56.76
2023-03-31T07:52:44.142Z,55.26
2023-03-31T07:55:48.401Z,55.18
2023-03-31T07:58:54.450Z,53.91
2023-03-31T08:01:58.925Z,53.03
2023-03-31T08:05:02.100Z,55.32
2023-03-31T08:08:06.225Z,55.02
2023-03-31T08:11:09.103Z,54.74
2023-03-31T08:14:11.923Z,55.35
2023-03-31T08:17:14.622Z,56.09
2023-03-31T08:20:17.608Z,57.21
2023-03-31T08:23:21.733Z,55.96
2023-03-31T08:26:25.655Z,55.93
2023-03-31T08:29:28.376Z,55.98
2023-03-31T08:32:32.162Z,56.20
2023-03-31T08:35:34.907Z,55.72
2023-03-31T08:38:41.614Z,54.04
2023-03-31T08:41:52.090Z,53.81
2023-03-31T08:45:01.118Z,52.65
2023-03-31T08:48:07.980Z,54.26
2023-03-31T08:51:17.211Z,53.78
2023-03-31T08:54:31.373Z,54.78
2023-03-31T08:57:41.539Z,54.53
2023-03-31T09:00:52.174Z,53.65
2023-03-31T09:04:14.105Z,53.47
2023-03-31T09:07:26.297Z,55.05
2023-03-31T09:10:42.757Z,54.45
2023-03-31T09:14:13.859Z,53.52
2023-03-31T09:17:21.563Z,52.77
2023-03-31T09:20:31.456Z,52.79
2023-03-31T09:23:39.469Z,51.13
2023-03-31T09:26:48.695Z,50.59
2023-03-31T09:29:57.014Z,51.17
2023-03-31T09:33:12.233Z,50.02
2023-03-31T09:36:17.865Z,48.45
2023-03-31T09:39:20.907Z,49.59
2023-03-31T09:42:25.057Z,50.26
2023-03-31T09:45:30.759Z,50.85
2023-03-31T09:48:37.101Z,50.83
2023-03-31T09:51:44.995Z,50.83
2023-03-31T09:54:51.152Z,50.79
2023-03-31T09:57:55.282Z,51.09
2023-03-31T10:01:01.778Z,50.55
2023-03-31T10:04:10.095Z,51.28
2023-03-31T10:07:13.733Z,52.73
2023-03-31T10:10:28.249Z,51.19
2023-03-31T10:13:41.473Z,51.52
2023-03-31T10:16:47.199Z,53.92
2023-03-31T10:19:52.836Z,58.80
2023-03-31T10:22:55.596Z,60.77
2023-03-31T10:25:59.400Z,63.81
2023-03-31T10:29:03.704Z,57.84
2023-03-31T10:32:13.219Z,57.65
2023-03-31T10:35:25.089Z,60.00
2023-03-31T10:38:31.232Z,61.94
2023-03-31T10:41:34.747Z,65.19
2023-03-31T10:44:40.444Z,66.97
2023-03-31T10:47:43.409Z,68.75
2023-03-31T10:50:46.433Z,67.52
2023-03-31T10:53:51.220Z,63.57
2023-03-31T10:56:57.326Z,65.09
2023-03-31T11:00:15.098Z,62.14
2023-03-31T11:03:36.327Z,63.91
2023-03-31T11:06:50.586Z,61.40
2023-03-31T11:10:11.860Z,62.08
2023-03-31T11:13:22.768Z,61.11
2023-03-31T11:16:35.175Z,60.76
2023-03-31T11:19:46.867Z,61.07
2023-03-31T11:23:00.114Z,58.20
2023-03-31T11:26:08.472Z,59.30
2023-03-31T11:29:27.491Z,58.08
2023-03-31T11:32:45.130Z,57.86
2023-03-31T11:36:00.261Z,56.64
2023-03-31T11:39:16.344Z,54.91
2023-03-31T11:42:22.558Z,55.53
2023-03-31T11:45:30.621Z,55.32
2023-03-31T11:48:42.129Z,54.10
2023-03-31T11:51:52.242Z,55.10
2023-03-31T11:55:01.479Z,53.54
2023-03-31T11:58:11.134Z,57.61
2023-03-31T12:01:21.886Z,58.52
2023-03-31T12:04:34.764Z,58.22
2023-03-31T12:07:42.970Z,61.79
2023-03-31T12:10:49.647Z,64.92
2023-03-31T12:13:59.941Z,67.82
2023-03-31T12:17:10.534Z,65.51
2023-03-31T12:20:20.739Z,66.83
2023-03-31T12:23:28.221Z,67.22
2023-03-31T12:26:40.082Z,64.47
2023-03-31T12:29:46.792Z,65.59
2023-03-31T12:32:54.865Z,68.85
2023-03-31T12:36:18.168Z,67.52
2023-03-31T12:39:35.726Z,65.72
2023-03-31T12:42:54.180Z,63.84
2023-03-31T12:46:09.968Z,63.78
2023-03-31T12:49:44.873Z,63.05
2023-03-31T12:52:58.655Z,64.45
2023-03-31T12:56:01.575Z,63.79
2023-03-31T12:59:20.006Z,62.77
2023-03-31T13:02:26.197Z,62.80
2023-03-31T13:05:47.301Z,65.52
2023-03-31T13:08:54.494Z,64.10
2023-03-31T13:11:57.297Z,65.82
2023-03-31T13:15:00.676Z,64.00
2023-03-31T13:18:05.483Z,65.99
2023-03-31T13:21:09.351Z,66.50
2023-03-31T13:24:14.816Z,68.20
2023-03-31T13:27:34.512Z,67.66
2023-03-31T13:31:08.442Z,69.13
2023-03-31T13:34:11.202Z,71.22
2023-03-31T13:37:22.436Z,71.16
2023-03-31T13:40:50.255Z,72.65
2023-03-31T13:44:29.504Z,75.06
2023-03-31T13:47:58.679Z,75.13
2023-03-31T13:51:31.062Z,72.34
2023-03-31T13:54:54.452Z,74.43
2023-03-31T13:58:34.373Z,73.12
2023-03-31T14:02:04.565Z,74.02
2023-03-31T14:05:22.515Z,73.83
2023-03-31T14:08:37.841Z,72.21
2023-03-31T14:11:40.744Z,73.75
2023-03-31T14:14:45.145Z,75.26
2023-03-31T14:17:48.434Z,76.18
2023-03-31T14:21:05.752Z,75.11
2023-03-31T14:24:19.207Z,75.57
2023-03-31T14:27:39.779Z,74.38
2023-03-31T14:30:53.820Z,73.89
2023-03-31T14:34:13.285Z,75.44
2023-03-31T14:37:21.251Z,74.79
2023-03-31T14:40:25.577Z,74.43
2023-03-31T14:43:30.728Z,75.46
2023-03-31T14:46:40.067Z,74.73
2023-03-31T14:49:43.186Z,75.51
2023-03-31T14:52:49.080Z,75.69
2023-03-31T14:55:58.689Z,73.99
2023-03-31T14:59:03.043Z,74.47
2023-03-31T15:02:12.161Z,76.06
2023-03-31T15:05:26.193Z,76.46
2023-03-31T15:08:30.906Z,76.46
2023-03-31T15:11:33.948Z,75.68
2023-03-31T15:14:41.659Z,75.90
2023-03-31T15:17:48.490Z,76.57
2023-03-31T15:20:51.513Z,76.25
2023-03-31T15:23:56.482Z,74.68
2023-03-31T15:27:04.335Z,74.08
2023-03-31T15:30:09.094Z,74.58
2023-03-31T15:33:21.092Z,73.95
2023-03-31T15:36:24.263Z,74.39
2023-03-31T15:39:29.557Z,75.45
2023-03-31T15:42:33.760Z,75.75
2023-03-31T15:45:46.124Z,75.16
2023-03-31T15:48:55.101Z,75.75
2023-03-31T15:52:00.493Z,76.61
2023-03-31T15:55:24.065Z,75.66
2023-03-31T15:58:47.635Z,76.27
2023-03-31T16:01:51.606Z,76.67
2023-03-31T16:04:59.389Z,75.89
2023-03-31T16:08:03.418Z,75.67
2023-03-31T16:11:11.035Z,73.75
2023-03-31T16:14:20.078Z,77.00
2023-03-31T16:17:28.169Z,76.18
2023-03-31T16:20:37.325Z,77.82
2023-03-31T16:23:44.334Z,77.31
2023-03-31T16:26:47.766Z,76.10
2023-03-31T16:29:50.526Z,76.65
2023-03-31T16:33:02.304Z,76.73
2023-03-31T16:36:08.890Z,76.78
2023-03-31T16:39:11.752Z,76.86
2023-03-31T16:42:14.493Z,77.57
2023-03-31T16:45:17.494Z,78.28
2023-03-31T16:48:22.642Z,77.13
2023-03-31T16:51:27.002Z,76.74
2023-03-31T16:54:29.677Z,77.17
2023-03-31T16:57:32.663Z,76.13
2023-03-31T17:00:36.909Z,77.43
2023-03-31T17:03:41.719Z,77.62
2023-03-31T17:06:46.568Z,77.19
2023-03-31T17:09:49.360Z,77.68
2023-03-31T17:12:52.310Z,78.13
2023-03-31T17:16:01.360Z,77.81
2023-03-31T17:19:18.430Z,77.65
2023-03-31T17:22:22.727Z,77.27
2023-03-31T17:25:25.599Z,77.09
2023-03-31T17:28:28.761Z,77.81
2023-03-31T17:31:31.852Z,78.17
2023-03-31T17:34:34.897Z,78.96
2023-03-31T17:37:39.090Z,78.42
2023-03-31T17:40:43.120Z,79.07
2023-03-31T17:43:46.806Z,78.15
2023-03-31T17:46:49.619Z,78.29
2023-03-31T17:49:52.376Z,79.25
2023-03-31T17:52:58.470Z,78.69
2023-03-31T17:56:01.377Z,78.74
2023-03-31T17:59:04.563Z,79.50
2023-03-31T18:02:08.215Z,79.04
2023-03-31T18:05:11.269Z,78.38
2023-03-31T18:08:16.019Z,78.39
2023-03-31T18:11:18.770Z,79.11
2023-03-31T18:14:22.324Z,79.58
2023-03-31T18:17:25.187Z,79.99
2023-03-31T18:20:28.558Z,79.44
2023-03-31T18:23:33.849Z,78.98
2023-03-31T18:26:36.547Z,78.84
2023-03-31T18:29:39.898Z,79.48
2023-03-31T18:32:43.544Z,80.21
2023-03-31T18:35:48.406Z,79.59
2023-03-31T18:38:53.350Z,80.34
2023-03-31T18:41:56.168Z,80.69
2023-03-31T18:44:59.052Z,81.24
2023-03-31T18:48:02.491Z,80.91
2023-03-31T18:51:05.990Z,81.43
2023-03-31T18:54:10.353Z,81.10
2023-03-31T18:57:13.200Z,81.60
2023-03-31T19:00:17.226Z,81.19
2023-03-31T19:03:20.351Z,82.38
2023-03-31T19:06:23.576Z,82.41
2023-03-31T19:09:27.991Z,81.80
2023-03-31T19:12:30.785Z,82.03
2023-03-31T19:15:33.894Z,83.04
2023-03-31T19:18:37.470Z,82.40
2023-03-31T19:21:41.350Z,81.84
2023-03-31T19:24:46.142Z,83.22
2023-03-31T19:27:49.486Z,82.50
2023-03-31T19:30:54.266Z,81.16
2023-03-31T19:33:58.515Z,82.01
2023-03-31T19:37:02.236Z,81.96
2023-03-31T19:40:07.757Z,81.17
2023-03-31T19:43:19.304Z,82.08
2023-03-31T19:46:22.322Z,82.01
2023-03-31T19:49:25.342Z,81.92
2023-03-31T19:52:29.683Z,80.60
2023-03-31T19:55:37.465Z,82.42
2023-03-31T19:58:40.286Z,81.40
2023-03-31T20:01:43.245Z,82.43
2023-03-31T20:04:46.155Z,81.79
2023-03-31T20:07:49.053Z,81.44
2023-03-31T20:10:53.391Z,81.85
2023-03-31T20:13:57.185Z,81.79
2023-03-31T20:17:01.229Z,82.09
2023-03-31T20:20:04.084Z,81.40
2023-03-31T20:23:07.042Z,81.28
2023-03-31T20:26:14.480Z,81.35
2023-03-31T20:29:17.672Z,81.42
2023-03-31T20:32:20.633Z,82.01
2023-03-31T20:35:23.398Z,82.13
2023-03-31T20:38:26.282Z,81.73
2023-03-31T20:41:31.958Z,81.95
2023-03-31T20:44:34.952Z,81.45
2023-03-31T20:47:37.867Z,81.69
2023-03-31T20:50:41.837Z,81.36
2023-03-31T20:53:46.782Z,81.12
2023-03-31T20:56:51.928Z,81.47
2023-03-31T20:59:54.743Z,81.46
2023-03-31T21:02:57.641Z,81.63
2023-03-31T21:06:04.003Z,81.59
2023-03-31T21:09:07.204Z,82.08
2023-03-31T21:12:12.656Z,82.03
2023-03-31T21:15:15.650Z,82.88
2023-03-31T21:18:18.534Z,82.19
2023-03-31T21:21:24.274Z,82.38
2023-03-31T21:24:27.812Z,82.26
2023-03-31T21:27:32.148Z,81.88
2023-03-31T21:30:34.867Z,81.82
2023-03-31T21:33:39.148Z,82.16
2023-03-31T21:36:43.132Z,82.34
2023-03-31T21:39:46.527Z,82.05
2023-03-31T21:42:50.752Z,82.25
2023-03-31T21:45:58.414Z,81.70
2023-03-31T21:49:01.504Z,83.13
2023-03-31T21:52:05.216Z,82.21
2023-03-31T21:55:11.849Z,82.63
2023-03-31T21:58:16.732Z,81.60
2023-03-31T22:01:20.446Z,82.56
2023-03-31T22:04:23.367Z,82.25
2023-03-31T22:07:26.260Z,82.32
2023-03-31T22:10:29.181Z,82.86
2023-03-31T22:13:33.962Z,82.99
2023-03-31T22:16:36.962Z,82.43
2023-03-31T22:19:39.814Z,82.65
2023-03-31T22:22:42.778Z,82.48
2023-03-31T22:25:45.713Z,82.54
2023-03-31T22:28:50.621Z,82.56
2023-03-31T22:31:53.557Z,82.98
2023-03-31T22:34:56.414Z,83.08
2023-03-31T22:37:59.254Z,82.67
2023-03-31T22:41:02.101Z,82.95
2023-03-31T22:44:06.391Z,82.32
2023-03-31T22:47:09.349Z,82.24
2023-03-31T22:50:12.667Z,82.39
2023-03-31T22:53:16.827Z,82.77
2023-03-31T22:56:21.227Z,82.78
2023-03-31T22:59:25.651Z,82.50
2023-03-31T23:02:28.394Z,82.76
2023-03-31T23:05:31.671Z,82.41
2023-03-31T23:08:35.823Z,82.42
2023-03-31T23:11:38.944Z,83.06
2023-03-31T23:14:43.224Z,83.58
2023-03-31T23:17:46.042Z,83.05
2023-03-31T23:20:49.113Z,83.29
2023-03-31T23:23:53.833Z,83.49
2023-03-31T23:26:56.812Z,83.12
2023-03-31T23:30:01.191Z,83.10
2023-03-31T23:33:03.944Z,82.75
2023-03-31T23:36:07.973Z,82.94
2023-03-31T23:39:10.918Z,82.69
2023-03-31T23:42:16.145Z,82.72
2023-03-31T23:45:20.452Z,82.70
2023-03-31T23:48:23.369Z,82.75
2023-03-31T23:51:26.668Z,82.64
2023-03-31T23:54:29.967Z,83.06
2023-03-31T23:57:32.730Z,83.16
